sensor_id;sensor_type;location;lat;lon;timestamp;temperature;humidity
76838;DHT22;65797;47.352;8.164;2023-03-05T00:01:10;1.10;1.00
76838;DHT22;65797;47.352;8.164;2023-03-05T00:03:36;1.00;1.00
76838;DHT22;65797;47.352;8.164;2023-03-05T00:06:02;1.00;1.00
76838;DHT22;65797;47.352;8.164;2023-03-05T00:08:32;1.00;1.00
76838;DHT22;65797;47.352;8.164;2023-03-05T00:11:00;1.00;1.00
76838;DHT22;65797;47.352;8.164;2023-03-05T00:13:26;0.90;1.00
76838;DHT22;65797;47.352;8.164;2023-03-05T00:15:52;0.90;1.00
76838;DHT22;65797;47.352;8.164;2023-03-05T00:18:18;0.90;1.00
76838;DHT22;65797;47.352;8.164;2023-03-05T00:20:44;0.90;1.00
76838;DHT22;65797;47.352;8.164;2023-03-05T00:23:10;0.90;1.00
76838;DHT22;65797;47.352;8.164;2023-03-05T00:25:36;0.90;1.00
76838;DHT22;65797;47.352;8.164;2023-03-05T00:28:03;0.90;1.00
76838;DHT22;65797;47.352;8.164;2023-03-05T00:30:29;0.90;1.00
76838;DHT22;65797;47.352;8.164;2023-03-05T00:32:55;0.80;1.00
76838;DHT22;65797;47.352;8.164;2023-03-05T00:35:21;0.80;1.00
76838;DHT22;65797;47.352;8.164;2023-03-05T00:37:47;0.80;1.00
76838;DHT22;65797;47.352;8.164;2023-03-05T00:40:12;0.80;1.00
76838;DHT22;65797;47.352;8.164;2023-03-05T00:42:38;0.80;1.00
76838;DHT22;65797;47.352;8.164;2023-03-05T00:45:06;0.80;1.00
76838;DHT22;65797;47.352;8.164;2023-03-05T00:47:32;0.80;1.00
76838;DHT22;65797;47.352;8.164;2023-03-05T00:49:58;0.70;1.00
76838;DHT22;65797;47.352;8.164;2023-03-05T00:52:24;0.60;1.00
76838;DHT22;65797;47.352;8.164;2023-03-05T00:54:49;0.60;1.00
76838;DHT22;65797;47.352;8.164;2023-03-05T00:57:15;0.60;1.00
76838;DHT22;65797;47.352;8.164;2023-03-05T00:59:41;0.50;1.00
76838;DHT22;65797;47.352;8.164;2023-03-05T01:02:07;0.50;1.00
76838;DHT22;65797;47.352;8.164;2023-03-05T01:04:32;0.50;1.00
76838;DHT22;65797;47.352;8.164;2023-03-05T01:06:58;0.50;1.00
76838;DHT22;65797;47.352;8.164;2023-03-05T01:09:24;0.50;1.00
76838;DHT22;65797;47.352;8.164;2023-03-05T01:11:51;0.60;1.00
76838;DHT22;65797;47.352;8.164;2023-03-05T01:14:17;0.60;1.00
76838;DHT22;65797;47.352;8.164;2023-03-05T01:16:43;0.60;1.00
76838;DHT22;65797;47.352;8.164;2023-03-05T01:19:09;0.50;1.00
76838;DHT22;65797;47.352;8.164;2023-03-05T01:21:35;0.50;1.00
76838;DHT22;65797;47.352;8.164;2023-03-05T01:24:02;0.50;1.00
76838;DHT22;65797;47.352;8.164;2023-03-05T01:26:28;0.50;1.00
76838;DHT22;65797;47.352;8.164;2023-03-05T01:28:53;0.60;1.00
76838;DHT22;65797;47.352;8.164;2023-03-05T01:31:19;0.60;1.00
76838;DHT22;65797;47.352;8.164;2023-03-05T01:33:45;0.60;1.00
76838;DHT22;65797;47.352;8.164;2023-03-05T01:36:13;0.50;1.00
76838;DHT22;65797;47.352;8.164;2023-03-05T01:38:42;0.60;1.00
76838;DHT22;65797;47.352;8.164;2023-03-05T01:41:08;0.60;1.00
76838;DHT22;65797;47.352;8.164;2023-03-05T01:43:34;0.60;1.00
76838;DHT22;65797;47.352;8.164;2023-03-05T01:46:24;0.60;1.00
76838;DHT22;65797;47.352;8.164;2023-03-05T01:49:05;0.60;1.00
76838;DHT22;65797;47.352;8.164;2023-03-05T01:51:37;0.60;1.00
76838;DHT22;65797;47.352;8.164;2023-03-05T01:54:06;0.70;1.00
76838;DHT22;65797;47.352;8.164;2023-03-05T01:56:32;0.70;1.00
76838;DHT22;65797;47.352;8.164;2023-03-05T01:58:59;0.70;1.00
76838;DHT22;65797;47.352;8.164;2023-03-05T02:01:36;0.70;1.00
76838;DHT22;65797;47.352;8.164;2023-03-05T02:04:03;0.70;1.00
76838;DHT22;65797;47.352;8.164;2023-03-05T02:06:29;0.60;1.00
76838;DHT22;65797;47.352;8.164;2023-03-05T02:08:56;0.70;1.00
76838;DHT22;65797;47.352;8.164;2023-03-05T02:11:21;0.70;14.50
76838;DHT22;65797;47.352;8.164;2023-03-05T02:13:47;0.80;1.00
76838;DHT22;65797;47.352;8.164;2023-03-05T02:16:13;0.80;1.00
76838;DHT22;65797;47.352;8.164;2023-03-05T02:18:38;0.80;1.00
76838;DHT22;65797;47.352;8.164;2023-03-05T02:21:06;0.80;1.00
76838;DHT22;65797;47.352;8.164;2023-03-05T02:23:34;0.80;1.00
76838;DHT22;65797;47.352;8.164;2023-03-05T02:26:05;0.70;1.00
76838;DHT22;65797;47.352;8.164;2023-03-05T02:28:42;0.70;1.00
76838;DHT22;65797;47.352;8.164;2023-03-05T02:31:15;0.70;1.00
76838;DHT22;65797;47.352;8.164;2023-03-05T02:33:41;0.70;1.00
76838;DHT22;65797;47.352;8.164;2023-03-05T02:36:07;0.80;1.00
76838;DHT22;65797;47.352;8.164;2023-03-05T02:38:33;0.80;1.00
76838;DHT22;65797;47.352;8.164;2023-03-05T02:40:59;0.80;1.00
76838;DHT22;65797;47.352;8.164;2023-03-05T02:43:25;0.80;1.00
76838;DHT22;65797;47.352;8.164;2023-03-05T02:45:51;0.80;1.00
76838;DHT22;65797;47.352;8.164;2023-03-05T02:48:17;0.80;1.00
76838;DHT22;65797;47.352;8.164;2023-03-05T02:50:43;0.80;1.00
76838;DHT22;65797;47.352;8.164;2023-03-05T02:53:09;0.80;1.00
76838;DHT22;65797;47.352;8.164;2023-03-05T02:55:35;0.80;1.00
76838;DHT22;65797;47.352;8.164;2023-03-05T02:58:01;0.70;1.00
76838;DHT22;65797;47.352;8.164;2023-03-05T03:00:26;0.70;1.00
76838;DHT22;65797;47.352;8.164;2023-03-05T03:02:52;0.70;1.00
76838;DHT22;65797;47.352;8.164;2023-03-05T03:05:18;0.80;1.00
76838;DHT22;65797;47.352;8.164;2023-03-05T03:07:44;0.80;1.00
76838;DHT22;65797;47.352;8.164;2023-03-05T03:10:10;0.80;1.00
76838;DHT22;65797;47.352;8.164;2023-03-05T03:12:40;0.80;1.00
76838;DHT22;65797;47.352;8.164;2023-03-05T03:15:08;0.80;1.00
76838;DHT22;65797;47.352;8.164;2023-03-05T03:17:36;0.90;1.00
76838;DHT22;65797;47.352;8.164;2023-03-05T03:20:04;0.90;1.00
76838;DHT22;65797;47.352;8.164;2023-03-05T03:22:31;0.90;1.00
76838;DHT22;65797;47.352;8.164;2023-03-05T03:24:57;1.00;1.00
76838;DHT22;65797;47.352;8.164;2023-03-05T03:27:23;1.00;1.00
76838;DHT22;65797;47.352;8.164;2023-03-05T03:29:49;1.00;1.00
76838;DHT22;65797;47.352;8.164;2023-03-05T03:32:14;1.00;1.00
76838;DHT22;65797;47.352;8.164;2023-03-05T03:34:40;1.00;1.00
76838;DHT22;65797;47.352;8.164;2023-03-05T03:37:06;1.00;1.00
76838;DHT22;65797;47.352;8.164;2023-03-05T03:39:32;1.00;1.00
76838;DHT22;65797;47.352;8.164;2023-03-05T03:41:58;1.00;1.00
76838;DHT22;65797;47.352;8.164;2023-03-05T03:44:24;1.00;1.00
76838;DHT22;65797;47.352;8.164;2023-03-05T03:46:50;1.00;1.00
76838;DHT22;65797;47.352;8.164;2023-03-05T03:49:22;0.90;1.00
76838;DHT22;65797;47.352;8.164;2023-03-05T03:51:50;1.00;1.00
76838;DHT22;65797;47.352;8.164;2023-03-05T05:44:29;1.30;1.00
76838;DHT22;65797;47.352;8.164;2023-03-05T05:52:06;1.40;1.00
76838;DHT22;65797;47.352;8.164;2023-03-05T05:54:31;1.40;1.00
76838;DHT22;65797;47.352;8.164;2023-03-05T05:56:57;1.40;1.00
76838;DHT22;65797;47.352;8.164;2023-03-05T05:59:23;1.40;1.00
76838;DHT22;65797;47.352;8.164;2023-03-05T06:01:49;1.30;1.00
76838;DHT22;65797;47.352;8.164;2023-03-05T06:04:14;1.30;1.00
76838;DHT22;65797;47.352;8.164;2023-03-05T06:06:40;1.30;1.00
76838;DHT22;65797;47.352;8.164;2023-03-05T06:09:06;1.30;1.00
76838;DHT22;65797;47.352;8.164;2023-03-05T06:11:31;1.40;1.00
76838;DHT22;65797;47.352;8.164;2023-03-05T06:13:58;1.40;1.00
76838;DHT22;65797;47.352;8.164;2023-03-05T06:16:27;1.40;1.00
76838;DHT22;65797;47.352;8.164;2023-03-05T06:18:52;1.40;1.00
76838;DHT22;65797;47.352;8.164;2023-03-05T06:21:20;1.40;1.00
76838;DHT22;65797;47.352;8.164;2023-03-05T06:23:46;1.40;1.00
76838;DHT22;65797;47.352;8.164;2023-03-05T06:26:15;1.40;1.00
76838;DHT22;65797;47.352;8.164;2023-03-05T06:28:41;1.40;1.00
76838;DHT22;65797;47.352;8.164;2023-03-05T06:31:13;1.40;1.00
76838;DHT22;65797;47.352;8.164;2023-03-05T06:33:39;1.50;1.00
76838;DHT22;65797;47.352;8.164;2023-03-05T06:36:08;1.50;1.00
76838;DHT22;65797;47.352;8.164;2023-03-05T06:38:34;1.50;1.00
76838;DHT22;65797;47.352;8.164;2023-03-05T06:41:05;1.50;1.00
76838;DHT22;65797;47.352;8.164;2023-03-05T08:31:18;4.10;99.90
76838;DHT22;65797;47.352;8.164;2023-03-05T08:36:20;4.50;99.90
76838;DHT22;65797;47.352;8.164;2023-03-05T08:43:55;4.30;99.90
76838;DHT22;65797;47.352;8.164;2023-03-05T09:27:47;5.10;99.90
76838;DHT22;65797;47.352;8.164;2023-03-05T11:37:18;8.70;99.90
76838;DHT22;65797;47.352;8.164;2023-03-05T11:39:45;9.20;99.90
76838;DHT22;65797;47.352;8.164;2023-03-05T13:39:54;10.00;99.90
76838;DHT22;65797;47.352;8.164;2023-03-05T13:47:31;9.30;99.90
76838;DHT22;65797;47.352;8.164;2023-03-05T13:49:58;9.00;99.90
76838;DHT22;65797;47.352;8.164;2023-03-05T14:07:57;8.90;99.90
76838;DHT22;65797;47.352;8.164;2023-03-05T14:28:41;8.20;99.90
76838;DHT22;65797;47.352;8.164;2023-03-05T14:31:15;8.30;99.90
76838;DHT22;65797;47.352;8.164;2023-03-05T14:33:41;8.60;99.90
76838;DHT22;65797;47.352;8.164;2023-03-05T14:36:08;8.80;99.90
76838;DHT22;65797;47.352;8.164;2023-03-05T14:38:39;8.80;99.90
76838;DHT22;65797;47.352;8.164;2023-03-05T14:41:35;9.00;99.90
76838;DHT22;65797;47.352;8.164;2023-03-05T14:44:15;9.30;99.90
76838;DHT22;65797;47.352;8.164;2023-03-05T14:46:42;9.10;99.90
76838;DHT22;65797;47.352;8.164;2023-03-05T14:49:08;9.20;99.90
76838;DHT22;65797;47.352;8.164;2023-03-05T14:51:38;9.40;99.90
76838;DHT22;65797;47.352;8.164;2023-03-05T14:54:04;9.10;99.90
76838;DHT22;65797;47.352;8.164;2023-03-05T14:56:30;9.20;99.90
76838;DHT22;65797;47.352;8.164;2023-03-05T14:58:56;9.60;99.90
76838;DHT22;65797;47.352;8.164;2023-03-05T15:01:23;9.40;99.90
76838;DHT22;65797;47.352;8.164;2023-03-05T15:03:49;9.30;99.90
76838;DHT22;65797;47.352;8.164;2023-03-05T15:06:23;9.30;99.90
76838;DHT22;65797;47.352;8.164;2023-03-05T15:08:52;9.40;99.90
76838;DHT22;65797;47.352;8.164;2023-03-05T15:11:18;9.40;99.90
76838;DHT22;65797;47.352;8.164;2023-03-05T15:13:47;9.00;99.90
76838;DHT22;65797;47.352;8.164;2023-03-05T15:16:17;8.80;99.90
76838;DHT22;65797;47.352;8.164;2023-03-05T15:18:44;8.80;99.90
76838;DHT22;65797;47.352;8.164;2023-03-05T15:21:11;8.60;99.90
76838;DHT22;65797;47.352;8.164;2023-03-05T15:23:36;8.50;99.90
76838;DHT22;65797;47.352;8.164;2023-03-05T15:26:05;8.40;99.90
76838;DHT22;65797;47.352;8.164;2023-03-05T15:31:07;8.40;99.90
76838;DHT22;65797;47.352;8.164;2023-03-05T15:33:34;8.40;99.90
76838;DHT22;65797;47.352;8.164;2023-03-05T16:26:55;8.10;99.90
76838;DHT22;65797;47.352;8.164;2023-03-05T16:52:38;7.20;99.90
76838;DHT22;65797;47.352;8.164;2023-03-05T16:55:04;7.20;99.90
76838;DHT22;65797;47.352;8.164;2023-03-05T16:57:30;7.00;99.90
76838;DHT22;65797;47.352;8.164;2023-03-05T16:59:56;6.80;99.90
76838;DHT22;65797;47.352;8.164;2023-03-05T17:02:23;6.80;99.90
76838;DHT22;65797;47.352;8.164;2023-03-05T17:04:48;6.70;99.90
76838;DHT22;65797;47.352;8.164;2023-03-05T17:07:15;6.60;99.90
76838;DHT22;65797;47.352;8.164;2023-03-05T17:09:41;6.50;99.90
76838;DHT22;65797;47.352;8.164;2023-03-05T17:12:09;6.40;99.90
76838;DHT22;65797;47.352;8.164;2023-03-05T17:14:35;6.40;99.90
76838;DHT22;65797;47.352;8.164;2023-03-05T17:17:01;6.30;99.90
76838;DHT22;65797;47.352;8.164;2023-03-05T17:19:27;6.20;99.90
76838;DHT22;65797;47.352;8.164;2023-03-05T17:21:52;6.10;99.90
76838;DHT22;65797;47.352;8.164;2023-03-05T17:24:18;6.10;99.90
76838;DHT22;65797;47.352;8.164;2023-03-05T17:26:44;6.10;99.90
76838;DHT22;65797;47.352;8.164;2023-03-05T17:29:11;6.00;99.90
76838;DHT22;65797;47.352;8.164;2023-03-05T17:31:37;5.90;99.90
76838;DHT22;65797;47.352;8.164;2023-03-05T17:34:03;5.90;99.90
76838;DHT22;65797;47.352;8.164;2023-03-05T17:36:29;5.80;99.90
76838;DHT22;65797;47.352;8.164;2023-03-05T17:38:56;5.70;99.90
76838;DHT22;65797;47.352;8.164;2023-03-05T17:41:22;5.60;99.90
76838;DHT22;65797;47.352;8.164;2023-03-05T17:43:48;5.50;99.90
76838;DHT22;65797;47.352;8.164;2023-03-05T17:46:14;5.50;99.90
76838;DHT22;65797;47.352;8.164;2023-03-05T17:48:40;5.40;99.90
76838;DHT22;65797;47.352;8.164;2023-03-05T17:51:07;5.40;99.90
76838;DHT22;65797;47.352;8.164;2023-03-05T17:53:33;5.30;99.90
76838;DHT22;65797;47.352;8.164;2023-03-05T17:56:00;5.20;99.90
76838;DHT22;65797;47.352;8.164;2023-03-05T17:58:26;5.20;99.90
76838;DHT22;65797;47.352;8.164;2023-03-05T18:00:52;5.20;99.90
76838;DHT22;65797;47.352;8.164;2023-03-05T18:03:18;5.00;99.90
76838;DHT22;65797;47.352;8.164;2023-03-05T18:05:43;4.90;99.90
76838;DHT22;65797;47.352;8.164;2023-03-05T18:08:09;4.90;99.90
76838;DHT22;65797;47.352;8.164;2023-03-05T18:10:35;4.80;99.90
76838;DHT22;65797;47.352;8.164;2023-03-05T18:13:01;4.70;99.90
76838;DHT22;65797;47.352;8.164;2023-03-05T18:15:27;4.70;99.90
76838;DHT22;65797;47.352;8.164;2023-03-05T18:17:54;4.60;99.90
76838;DHT22;65797;47.352;8.164;2023-03-05T18:20:30;4.40;99.90
76838;DHT22;65797;47.352;8.164;2023-03-05T18:22:58;4.30;99.90
76838;DHT22;65797;47.352;8.164;2023-03-05T18:25:24;4.20;99.90
76838;DHT22;65797;47.352;8.164;2023-03-05T18:27:59;4.00;99.90
76838;DHT22;65797;47.352;8.164;2023-03-05T18:30:26;3.80;99.90
76838;DHT22;65797;47.352;8.164;2023-03-05T18:32:52;3.80;99.90
76838;DHT22;65797;47.352;8.164;2023-03-05T18:35:18;3.80;99.90
76838;DHT22;65797;47.352;8.164;2023-03-05T18:37:43;3.70;99.90
76838;DHT22;65797;47.352;8.164;2023-03-05T18:40:22;3.70;99.90
76838;DHT22;65797;47.352;8.164;2023-03-05T18:42:49;3.50;99.90
76838;DHT22;65797;47.352;8.164;2023-03-05T18:45:19;3.40;99.90
76838;DHT22;65797;47.352;8.164;2023-03-05T18:47:44;3.50;99.90
76838;DHT22;65797;47.352;8.164;2023-03-05T18:50:13;3.20;99.90
76838;DHT22;65797;47.352;8.164;2023-03-05T18:52:40;3.20;99.90
76838;DHT22;65797;47.352;8.164;2023-03-05T18:55:07;3.20;99.90
76838;DHT22;65797;47.352;8.164;2023-03-05T18:57:36;3.20;99.90
76838;DHT22;65797;47.352;8.164;2023-03-05T19:00:02;3.10;99.90
76838;DHT22;65797;47.352;8.164;2023-03-05T19:02:27;3.10;99.90
76838;DHT22;65797;47.352;8.164;2023-03-05T19:04:54;3.10;99.90
76838;DHT22;65797;47.352;8.164;2023-03-05T19:07:20;3.00;99.90
76838;DHT22;65797;47.352;8.164;2023-03-05T19:09:53;2.90;99.90
76838;DHT22;65797;47.352;8.164;2023-03-05T19:12:25;2.70;99.90
76838;DHT22;65797;47.352;8.164;2023-03-05T19:15:00;2.60;99.90
76838;DHT22;65797;47.352;8.164;2023-03-05T19:17:27;2.60;99.90
76838;DHT22;65797;47.352;8.164;2023-03-05T19:19:54;2.60;99.90
76838;DHT22;65797;47.352;8.164;2023-03-05T19:22:20;2.60;99.90
76838;DHT22;65797;47.352;8.164;2023-03-05T19:24:47;2.40;99.90
76838;DHT22;65797;47.352;8.164;2023-03-05T19:27:13;2.40;99.90
76838;DHT22;65797;47.352;8.164;2023-03-05T19:29:42;2.40;99.90
76838;DHT22;65797;47.352;8.164;2023-03-05T19:32:13;2.30;99.90
76838;DHT22;65797;47.352;8.164;2023-03-05T19:34:40;2.20;99.90
76838;DHT22;65797;47.352;8.164;2023-03-05T19:37:06;2.20;99.90
76838;DHT22;65797;47.352;8.164;2023-03-05T19:39:34;2.20;99.90
76838;DHT22;65797;47.352;8.164;2023-03-05T19:42:00;2.10;99.90
76838;DHT22;65797;47.352;8.164;2023-03-05T19:44:25;2.00;99.90
76838;DHT22;65797;47.352;8.164;2023-03-05T19:46:51;1.90;99.90
76838;DHT22;65797;47.352;8.164;2023-03-05T19:49:18;1.90;99.90
76838;DHT22;65797;47.352;8.164;2023-03-05T19:51:45;1.80;99.90
76838;DHT22;65797;47.352;8.164;2023-03-05T19:54:11;1.70;99.90
76838;DHT22;65797;47.352;8.164;2023-03-05T19:56:39;1.70;99.90
76838;DHT22;65797;47.352;8.164;2023-03-05T19:59:06;1.60;99.90
76838;DHT22;65797;47.352;8.164;2023-03-05T20:01:32;1.50;99.90
76838;DHT22;65797;47.352;8.164;2023-03-05T20:03:59;1.40;99.90
76838;DHT22;65797;47.352;8.164;2023-03-05T20:06:26;1.30;99.90
76838;DHT22;65797;47.352;8.164;2023-03-05T20:08:52;1.20;99.90
76838;DHT22;65797;47.352;8.164;2023-03-05T20:11:19;1.30;99.90
76838;DHT22;65797;47.352;8.164;2023-03-05T20:13:45;1.30;99.90
76838;DHT22;65797;47.352;8.164;2023-03-05T20:16:19;1.30;99.90
76838;DHT22;65797;47.352;8.164;2023-03-05T20:18:45;1.30;99.90
76838;DHT22;65797;47.352;8.164;2023-03-05T20:21:14;1.30;99.90
76838;DHT22;65797;47.352;8.164;2023-03-05T20:23:45;1.20;99.90
76838;DHT22;65797;47.352;8.164;2023-03-05T20:26:11;1.20;99.90
76838;DHT22;65797;47.352;8.164;2023-03-05T20:28:37;1.20;99.90
76838;DHT22;65797;47.352;8.164;2023-03-05T20:31:02;1.10;99.90
76838;DHT22;65797;47.352;8.164;2023-03-05T20:33:28;0.90;99.90
76838;DHT22;65797;47.352;8.164;2023-03-05T20:35:54;0.80;99.90
76838;DHT22;65797;47.352;8.164;2023-03-05T20:38:25;0.90;99.90
76838;DHT22;65797;47.352;8.164;2023-03-05T20:40:58;0.90;99.90
76838;DHT22;65797;47.352;8.164;2023-03-05T20:43:34;0.90;99.90
76838;DHT22;65797;47.352;8.164;2023-03-05T20:46:01;0.90;99.90
76838;DHT22;65797;47.352;8.164;2023-03-05T20:48:31;0.80;99.90
76838;DHT22;65797;47.352;8.164;2023-03-05T20:50:57;0.80;99.90
76838;DHT22;65797;47.352;8.164;2023-03-05T20:53:25;0.80;99.90
76838;DHT22;65797;47.352;8.164;2023-03-05T20:55:51;0.70;99.90
76838;DHT22;65797;47.352;8.164;2023-03-05T20:58:17;0.70;99.90
76838;DHT22;65797;47.352;8.164;2023-03-05T21:00:43;0.60;99.90
76838;DHT22;65797;47.352;8.164;2023-03-05T21:03:09;0.60;99.90
76838;DHT22;65797;47.352;8.164;2023-03-05T21:05:36;0.50;99.90
76838;DHT22;65797;47.352;8.164;2023-03-05T21:08:02;0.50;99.90
76838;DHT22;65797;47.352;8.164;2023-03-05T21:10:29;0.50;99.90
76838;DHT22;65797;47.352;8.164;2023-03-05T21:12:55;0.40;99.90
76838;DHT22;65797;47.352;8.164;2023-03-05T21:15:26;0.40;99.90
76838;DHT22;65797;47.352;8.164;2023-03-05T21:17:53;0.30;99.90
76838;DHT22;65797;47.352;8.164;2023-03-05T21:20:28;0.40;99.90
76838;DHT22;65797;47.352;8.164;2023-03-05T21:22:55;0.20;99.90
76838;DHT22;65797;47.352;8.164;2023-03-05T21:25:26;0.20;99.90
76838;DHT22;65797;47.352;8.164;2023-03-05T21:30:36;0.10;99.90
76838;DHT22;65797;47.352;8.164;2023-03-05T21:33:09;0.10;99.90
76838;DHT22;65797;47.352;8.164;2023-03-05T21:35:35;0.00;99.90
76838;DHT22;65797;47.352;8.164;2023-03-05T21:38:03;0.10;99.90
76838;DHT22;65797;47.352;8.164;2023-03-05T21:40:30;0.00;99.90
76838;DHT22;65797;47.352;8.164;2023-03-05T21:42:56;0.00;99.90
76838;DHT22;65797;47.352;8.164;2023-03-05T21:45:23;-0.10;99.90
76838;DHT22;65797;47.352;8.164;2023-03-05T21:47:49;0.00;99.90
76838;DHT22;65797;47.352;8.164;2023-03-05T21:50:19;0.00;99.90
76838;DHT22;65797;47.352;8.164;2023-03-05T21:52:45;-0.10;99.90
76838;DHT22;65797;47.352;8.164;2023-03-05T21:55:20;0.00;99.90
76838;DHT22;65797;47.352;8.164;2023-03-05T21:57:47;-0.10;99.90
76838;DHT22;65797;47.352;8.164;2023-03-05T22:00:14;-0.20;99.90
76838;DHT22;65797;47.352;8.164;2023-03-05T22:02:42;-0.20;1.00
76838;DHT22;65797;47.352;8.164;2023-03-05T22:05:10;-0.20;1.00
76838;DHT22;65797;47.352;8.164;2023-03-05T22:07:38;-0.30;1.00
76838;DHT22;65797;47.352;8.164;2023-03-05T22:10:04;-0.30;1.00
76838;DHT22;65797;47.352;8.164;2023-03-05T22:12:37;-0.40;1.00
76838;DHT22;65797;47.352;8.164;2023-03-05T22:15:21;-0.50;1.00
76838;DHT22;65797;47.352;8.164;2023-03-05T22:17:47;-0.50;1.00
76838;DHT22;65797;47.352;8.164;2023-03-05T22:20:13;-0.50;1.00
76838;DHT22;65797;47.352;8.164;2023-03-05T22:22:39;-0.50;1.00
76838;DHT22;65797;47.352;8.164;2023-03-05T22:25:06;-0.50;1.00
76838;DHT22;65797;47.352;8.164;2023-03-05T22:27:32;-0.50;1.00
76838;DHT22;65797;47.352;8.164;2023-03-05T22:32:34;-0.60;1.00
76838;DHT22;65797;47.352;8.164;2023-03-05T22:35:00;-0.70;1.00
76838;DHT22;65797;47.352;8.164;2023-03-05T22:37:28;-0.70;1.00
76838;DHT22;65797;47.352;8.164;2023-03-05T22:39:54;-0.70;1.00
76838;DHT22;65797;47.352;8.164;2023-03-05T22:42:21;-0.70;1.00
76838;DHT22;65797;47.352;8.164;2023-03-05T22:44:46;-0.80;1.00
76838;DHT22;65797;47.352;8.164;2023-03-05T22:47:12;-0.80;1.00
76838;DHT22;65797;47.352;8.164;2023-03-05T22:49:38;-0.80;1.00
76838;DHT22;65797;47.352;8.164;2023-03-05T22:52:04;-0.80;1.00
76838;DHT22;65797;47.352;8.164;2023-03-05T22:54:29;-0.80;1.00
76838;DHT22;65797;47.352;8.164;2023-03-05T22:56:55;-0.80;1.00
76838;DHT22;65797;47.352;8.164;2023-03-05T22:59:21;-0.80;1.00
76838;DHT22;65797;47.352;8.164;2023-03-05T23:01:47;-0.80;1.00
76838;DHT22;65797;47.352;8.164;2023-03-05T23:04:41;-0.90;1.00
76838;DHT22;65797;47.352;8.164;2023-03-05T23:07:30;-0.90;1.00
76838;DHT22;65797;47.352;8.164;2023-03-05T23:10:02;-0.90;1.00
76838;DHT22;65797;47.352;8.164;2023-03-05T23:12:31;-0.90;1.00
76838;DHT22;65797;47.352;8.164;2023-03-05T23:15:01;-0.90;1.00
76838;DHT22;65797;47.352;8.164;2023-03-05T23:17:28;-0.90;1.00
76838;DHT22;65797;47.352;8.164;2023-03-05T23:19:53;-0.90;1.00
76838;DHT22;65797;47.352;8.164;2023-03-05T23:22:20;-1.00;1.00
76838;DHT22;65797;47.352;8.164;2023-03-05T23:24:46;-0.90;1.00
76838;DHT22;65797;47.352;8.164;2023-03-05T23:27:14;-0.90;1.00
76838;DHT22;65797;47.352;8.164;2023-03-05T23:30:17;-0.80;1.00
76838;DHT22;65797;47.352;8.164;2023-03-05T23:32:45;-0.80;1.00
76838;DHT22;65797;47.352;8.164;2023-03-05T23:35:13;-0.80;1.00
76838;DHT22;65797;47.352;8.164;2023-03-05T23:37:39;-0.80;1.00
76838;DHT22;65797;47.352;8.164;2023-03-05T23:40:06;-0.80;1.00
76838;DHT22;65797;47.352;8.164;2023-03-05T23:42:32;-0.80;1.00
76838;DHT22;65797;47.352;8.164;2023-03-05T23:44:58;-0.90;1.00
76838;DHT22;65797;47.352;8.164;2023-03-05T23:47:24;-0.80;1.00
76838;DHT22;65797;47.352;8.164;2023-03-05T23:49:49;-0.90;1.00
76838;DHT22;65797;47.352;8.164;2023-03-05T23:52:16;-0.80;1.00
76838;DHT22;65797;47.352;8.164;2023-03-05T23:54:42;-0.80;1.00
76838;DHT22;65797;47.352;8.164;2023-03-05T23:57:08;-0.80;1.00
76838;DHT22;65797;47.352;8.164;2023-03-05T23:59:34;-0.90;1.00
